createdAt,value
2023-05-09T00:01:11.743Z,13.90
2023-05-09T00:03:44.187Z,14.20
2023-05-09T00:06:17.440Z,14.10
2023-05-09T00:08:49.260Z,13.10
2023-05-09T00:11:21.876Z,13.50
2023-05-09T00:13:53.646Z,13.80
2023-05-09T00:16:25.395Z,13.00
2023-05-09T00:18:57.916Z,13.50
2023-05-09T00:21:30.302Z,13.10
2023-05-09T00:24:02.089Z,13.90
2023-05-09T00:26:33.907Z,12.80
2023-05-09T00:29:06.040Z,13.00
2023-05-09T00:31:37.928Z,13.80
2023-05-09T00:34:09.688Z,13.50
2023-05-09T00:36:41.978Z,14.10
2023-05-09T00:39:14.260Z,13.80
2023-05-09T00:41:45.965Z,13.90
2023-05-09T00:44:17.786Z,13.80
2023-05-09T00:46:49.584Z,13.90
2023-05-09T00:49:21.854Z,13.80
2023-05-09T00:51:55.548Z,14.10
2023-05-09T00:54:27.626Z,15.00
2023-05-09T00:56:59.307Z,14.10
2023-05-09T00:59:31.042Z,13.40
2023-05-09T01:02:02.815Z,11.10
2023-05-09T01:04:34.820Z,14.40
2023-05-09T01:07:12.544Z,15.10
2023-05-09T01:09:52.588Z,13.70
2023-05-09T01:12:32.496Z,15.50
2023-05-09T01:15:11.720Z,13.40
2023-05-09T01:17:51.072Z,14.40
2023-05-09T01:20:30.534Z,14.80
2023-05-09T01:23:20.789Z,15.30
2023-05-09T01:26:03.046Z,14.80
2023-05-09T01:29:03.469Z,14.30
2023-05-09T01:31:39.230Z,15.90
2023-05-09T01:34:15.296Z,15.30
2023-05-09T01:36:51.040Z,15.70
2023-05-09T01:39:25.449Z,16.20
2023-05-09T01:42:01.985Z,15.30
2023-05-09T01:44:38.277Z,16.20
2023-05-09T01:47:10.679Z,16.80
2023-05-09T01:49:44.501Z,17.50
2023-05-09T01:52:20.086Z,17.10
2023-05-09T01:54:53.721Z,16.40
2023-05-09T01:57:27.063Z,16.20
2023-05-09T02:00:00.746Z,17.30
2023-05-09T02:02:33.656Z,16.50
2023-05-09T02:05:06.292Z,15.90
2023-05-09T02:07:39.332Z,17.20
2023-05-09T02:10:13.071Z,17.50
2023-05-09T02:12:46.424Z,17.00
2023-05-09T02:15:19.148Z,16.10
2023-05-09T02:17:50.950Z,16.70
2023-05-09T02:20:23.025Z,16.20
2023-05-09T02:22:55.409Z,16.90
2023-05-09T02:25:27.115Z,16.50
2023-05-09T02:28:00.063Z,16.90
2023-05-09T02:30:37.750Z,16.60
2023-05-09T02:33:12.711Z,17.10
2023-05-09T02:35:47.484Z,15.50
2023-05-09T02:38:19.559Z,16.00
2023-05-09T02:40:52.828Z,15.40
2023-05-09T02:43:24.523Z,16.20
2023-05-09T02:45:56.359Z,17.60
2023-05-09T02:48:28.049Z,16.90
2023-05-09T02:50:59.828Z,16.80
2023-05-09T02:53:31.513Z,15.40
2023-05-09T02:56:03.916Z,16.50
2023-05-09T02:58:35.707Z,16.80
2023-05-09T03:01:07.696Z,11.40
2023-05-09T03:03:39.561Z,16.30
2023-05-09T03:06:11.875Z,16.80
2023-05-09T03:08:43.702Z,12.60
2023-05-09T03:11:15.736Z,16.20
2023-05-09T03:13:47.823Z,16.80
2023-05-09T03:16:21.117Z,17.20
2023-05-09T03:18:53.161Z,18.00
2023-05-09T03:21:25.001Z,17.20
2023-05-09T03:23:56.916Z,18.60
2023-05-09T03:26:28.702Z,11.30
2023-05-09T03:29:00.527Z,18.40
2023-05-09T03:31:32.759Z,11.80
2023-05-09T03:34:04.599Z,17.60
2023-05-09T03:36:36.276Z,18.60
2023-05-09T03:39:09.933Z,17.20
2023-05-09T03:41:44.100Z,19.00
2023-05-09T03:44:15.962Z,18.10
2023-05-09T03:46:47.717Z,17.80
2023-05-09T03:49:19.599Z,19.90
2023-05-09T03:51:51.996Z,18.90
2023-05-09T03:54:23.798Z,18.80
2023-05-09T03:56:56.047Z,18.10
2023-05-09T03:59:28.234Z,16.40
2023-05-09T04:02:00.679Z,18.50
2023-05-09T04:04:32.900Z,13.10
2023-05-09T04:09:36.192Z,20.30
2023-05-09T04:12:08.718Z,18.80
2023-05-09T04:14:40.852Z,19.00
2023-05-09T04:17:12.758Z,18.60
2023-05-09T04:19:44.535Z,13.70
2023-05-09T04:22:16.307Z,14.90
2023-05-09T04:24:48.227Z,19.50
2023-05-09T04:27:20.009Z,13.20
2023-05-09T04:29:53.546Z,18.60
2023-05-09T04:32:26.962Z,19.00
2023-05-09T04:34:59.654Z,18.80
2023-05-09T04:37:34.582Z,18.70
2023-05-09T04:40:09.129Z,19.80
2023-05-09T04:42:45.230Z,18.60
2023-05-09T04:45:17.243Z,19.50
2023-05-09T04:47:49.291Z,18.30
2023-05-09T04:50:21.110Z,20.00
2023-05-09T04:52:53.392Z,18.30
2023-05-09T04:55:26.291Z,18.30
2023-05-09T04:57:58.640Z,18.30
2023-05-09T05:00:31.092Z,18.40
2023-05-09T05:03:03.452Z,17.10
2023-05-09T05:05:37.421Z,17.50
2023-05-09T05:08:10.220Z,17.70
2023-05-09T05:10:43.980Z,16.70
2023-05-09T05:13:17.470Z,15.60
2023-05-09T05:15:51.763Z,16.40
2023-05-09T05:18:25.019Z,16.00
2023-05-09T05:20:56.936Z,14.60
2023-05-09T05:23:28.784Z,14.20
2023-05-09T05:26:00.893Z,14.20
2023-05-09T05:28:33.068Z,14.20
2023-05-09T05:31:05.010Z,15.30
2023-05-09T05:33:37.374Z,13.20
2023-05-09T05:38:40.735Z,13.60
2023-05-09T05:41:12.951Z,11.00
2023-05-09T05:43:45.385Z,13.10
2023-05-09T05:46:18.856Z,12.20
2023-05-09T05:48:51.138Z,13.40
2023-05-09T05:51:22.940Z,11.50
2023-05-09T05:53:54.666Z,12.60
2023-05-09T05:56:27.618Z,11.30
2023-05-09T05:59:00.794Z,11.60
2023-05-09T06:01:33.112Z,11.70
2023-05-09T06:04:05.059Z,10.30
2023-05-09T06:06:38.193Z,12.40
2023-05-09T06:09:10.038Z,11.70
2023-05-09T06:11:41.743Z,11.80
2023-05-09T06:14:13.601Z,10.20
2023-05-09T06:16:45.818Z,9.40
2023-05-09T06:19:17.542Z,10.50
2023-05-09T06:21:49.281Z,8.90
2023-05-09T06:24:34.633Z,9.10
2023-05-09T06:27:08.636Z,8.70
2023-05-09T06:29:40.724Z,8.20
2023-05-09T06:32:12.442Z,8.20
2023-05-09T06:34:44.140Z,7.40
2023-05-09T06:37:15.861Z,8.70
2023-05-09T06:39:47.596Z,8.30
2023-05-09T06:42:19.249Z,7.90
2023-05-09T06:44:51.597Z,7.20
2023-05-09T06:47:23.398Z,6.70
2023-05-09T06:49:55.710Z,6.70
2023-05-09T06:52:27.482Z,8.50
2023-05-09T06:54:59.744Z,7.40
2023-05-09T06:57:31.657Z,6.70
2023-05-09T07:00:04.866Z,5.50
2023-05-09T07:02:37.078Z,6.60
2023-05-09T07:05:11.012Z,6.60
2023-05-09T07:07:43.010Z,6.70
2023-05-09T07:10:15.414Z,6.80
2023-05-09T07:12:47.175Z,5.40
2023-05-09T07:15:32.475Z,6.50
2023-05-09T07:18:09.204Z,6.50
2023-05-09T07:20:41.374Z,7.30
2023-05-09T07:23:13.213Z,6.30
2023-05-09T07:25:45.349Z,5.80
2023-05-09T07:28:17.135Z,5.80
2023-05-09T07:30:49.195Z,5.30
2023-05-09T07:33:21.375Z,6.40
2023-05-09T07:35:53.991Z,5.50
2023-05-09T07:38:26.375Z,5.20
2023-05-09T07:40:58.101Z,5.30
2023-05-09T07:43:29.963Z,5.30
2023-05-09T07:46:02.021Z,5.00
2023-05-09T07:48:33.838Z,5.40
2023-05-09T07:51:05.764Z,4.50
2023-05-09T07:53:37.534Z,5.50
2023-05-09T07:56:09.450Z,5.20
2023-05-09T07:58:41.196Z,4.60
2023-05-09T08:01:13.068Z,5.00
2023-05-09T08:03:45.185Z,4.70
2023-05-09T08:06:17.056Z,4.40
2023-05-09T08:08:49.647Z,3.30
2023-05-09T08:11:21.458Z,4.90
2023-05-09T08:13:53.702Z,5.20
2023-05-09T08:16:25.602Z,4.90
2023-05-09T08:18:58.051Z,5.00
2023-05-09T08:21:30.256Z,5.30
2023-05-09T08:24:02.010Z,5.10
2023-05-09T08:26:34.001Z,5.20
2023-05-09T08:29:05.913Z,5.30
2023-05-09T08:31:38.248Z,4.40
2023-05-09T08:34:10.535Z,4.90
2023-05-09T08:36:45.544Z,4.80
2023-05-09T08:39:17.592Z,4.80
2023-05-09T08:41:49.432Z,4.40
2023-05-09T08:44:23.420Z,5.50
2023-05-09T08:47:01.986Z,5.50
2023-05-09T08:49:34.590Z,5.20
2023-05-09T08:52:07.198Z,5.20
2023-05-09T08:57:10.046Z,4.80
2023-05-09T08:59:43.396Z,5.10
2023-05-09T09:02:17.406Z,5.30
2023-05-09T09:04:50.082Z,4.90
2023-05-09T09:07:23.708Z,5.50
2023-05-09T09:09:56.760Z,6.20
2023-05-09T09:12:28.963Z,5.70
2023-05-09T09:15:05.875Z,4.70
2023-05-09T09:17:42.056Z,5.30
2023-05-09T09:20:17.444Z,4.80
2023-05-09T09:22:52.964Z,4.50
2023-05-09T09:25:24.631Z,4.40
2023-05-09T09:27:56.472Z,4.70
2023-05-09T09:30:29.287Z,4.90
2023-05-09T09:33:02.640Z,4.60
2023-05-09T09:35:43.491Z,4.80
2023-05-09T09:38:15.772Z,5.10
2023-05-09T09:40:56.052Z,4.20
2023-05-09T09:43:32.204Z,4.10
2023-05-09T09:46:05.899Z,4.70
2023-05-09T09:48:39.475Z,4.50
2023-05-09T09:51:12.619Z,4.60
2023-05-09T09:53:45.587Z,4.60
2023-05-09T09:56:17.271Z,4.80
2023-05-09T09:58:49.239Z,3.90
2023-05-09T10:01:21.069Z,3.80
2023-05-09T10:03:52.870Z,5.00
2023-05-09T10:06:24.553Z,4.50
2023-05-09T10:08:56.386Z,3.10
2023-05-09T10:11:28.205Z,3.70
2023-05-09T10:14:00.087Z,3.70
2023-05-09T10:16:43.174Z,3.80
2023-05-09T10:19:20.816Z,4.10
2023-05-09T10:21:55.878Z,5.60
2023-05-09T10:24:34.730Z,3.90
2023-05-09T10:27:11.038Z,4.00
2023-05-09T10:29:48.185Z,4.10
2023-05-09T10:32:25.663Z,4.00
2023-05-09T10:35:03.451Z,3.90
2023-05-09T10:37:36.460Z,3.90
2023-05-09T10:40:13.917Z,4.20
2023-05-09T10:42:46.353Z,3.40
2023-05-09T10:45:18.399Z,4.90
2023-05-09T10:47:52.934Z,3.80
2023-05-09T10:50:25.811Z,4.10
2023-05-09T10:55:55.417Z,3.80
2023-05-09T10:58:33.520Z,3.60
2023-05-09T11:01:06.112Z,3.90
2023-05-09T11:03:57.923Z,4.20
2023-05-09T11:06:51.259Z,3.70
2023-05-09T11:09:36.219Z,3.70
2023-05-09T11:12:16.239Z,3.20
2023-05-09T11:14:50.182Z,3.60
2023-05-09T11:17:32.640Z,3.70
2023-05-09T11:20:06.660Z,3.70
2023-05-09T11:22:43.620Z,3.90
2023-05-09T11:25:17.006Z,4.30
2023-05-09T11:27:51.999Z,3.90
2023-05-09T11:30:24.147Z,3.50
2023-05-09T11:32:58.904Z,4.40
2023-05-09T11:35:31.334Z,3.70
2023-05-09T11:38:05.862Z,4.30
2023-05-09T11:40:38.259Z,3.50
2023-05-09T11:43:10.406Z,3.70
2023-05-09T11:45:44.142Z,4.00
2023-05-09T11:48:16.625Z,3.30
2023-05-09T11:50:50.090Z,3.50
2023-05-09T11:53:21.926Z,3.00
2023-05-09T11:55:55.563Z,3.50
2023-05-09T11:58:27.560Z,3.60
2023-05-09T12:01:00.053Z,3.50
2023-05-09T12:06:03.426Z,3.20
2023-05-09T12:08:36.620Z,3.90
2023-05-09T12:11:13.917Z,3.60
2023-05-09T12:13:51.046Z,3.60
2023-05-09T12:16:23.196Z,4.30
2023-05-09T12:18:55.389Z,4.50
2023-05-09T12:21:28.438Z,3.20
2023-05-09T12:24:00.519Z,3.60
2023-05-09T12:26:33.016Z,3.60
2023-05-09T12:29:05.103Z,3.50
2023-05-09T12:31:37.277Z,3.40
2023-05-09T12:34:09.919Z,3.60
2023-05-09T12:36:50.422Z,3.60
2023-05-09T12:39:24.412Z,3.60
2023-05-09T12:42:01.707Z,3.80
2023-05-09T12:44:34.252Z,3.20
2023-05-09T12:47:06.642Z,4.00
2023-05-09T12:49:39.254Z,3.40
2023-05-09T12:54:50.288Z,3.10
2023-05-09T12:57:28.790Z,4.20
2023-05-09T13:00:03.262Z,3.70
2023-05-09T13:02:39.145Z,3.80
2023-05-09T13:05:15.654Z,3.50
2023-05-09T13:07:49.693Z,3.60
2023-05-09T13:10:25.248Z,3.60
2023-05-09T13:12:57.301Z,3.10
2023-05-09T13:15:29.676Z,3.40
2023-05-09T13:18:01.483Z,3.50
2023-05-09T13:20:33.700Z,3.40
2023-05-09T13:23:06.379Z,3.30
2023-05-09T13:25:38.210Z,4.40
2023-05-09T13:28:10.280Z,3.00
2023-05-09T13:30:42.144Z,3.00
2023-05-09T13:33:25.223Z,3.60
2023-05-09T13:35:58.061Z,3.50
2023-05-09T13:38:30.910Z,3.40
2023-05-09T13:41:02.921Z,3.00
2023-05-09T13:43:34.845Z,3.40
2023-05-09T13:46:06.826Z,3.00
2023-05-09T13:48:39.679Z,3.10
2023-05-09T13:51:11.622Z,3.80
2023-05-09T13:53:43.475Z,3.30
2023-05-09T13:56:15.209Z,3.60
2023-05-09T13:58:47.203Z,2.90
2023-05-09T14:01:19.392Z,2.70
2023-05-09T14:03:51.481Z,3.70
2023-05-09T14:06:23.317Z,3.00
2023-05-09T14:08:55.200Z,3.10
2023-05-09T14:11:27.274Z,2.70
2023-05-09T14:13:59.142Z,3.10
2023-05-09T14:16:31.157Z,2.90
2023-05-09T14:19:03.093Z,4.40
2023-05-09T14:21:34.877Z,7.10
2023-05-09T14:24:07.770Z,16.30
2023-05-09T14:26:39.980Z,24.60
2023-05-09T14:29:11.920Z,7.10
2023-05-09T14:31:43.974Z,59.30
2023-05-09T14:34:15.943Z,24.20
2023-05-09T14:36:48.854Z,10.80
2023-05-09T14:39:21.746Z,6.90
2023-05-09T14:41:53.669Z,60.80
2023-05-09T14:44:26.450Z,15.70
2023-05-09T14:46:59.095Z,51.00
2023-05-09T14:49:30.950Z,23.70
2023-05-09T14:52:03.572Z,36.60
2023-05-09T14:57:07.524Z,22.80
2023-05-09T14:59:39.403Z,41.20
2023-05-09T15:02:11.424Z,16.50
2023-05-09T15:04:43.917Z,15.70
2023-05-09T15:07:15.700Z,12.50
2023-05-09T15:09:47.465Z,17.20
2023-05-09T15:12:19.350Z,17.90
2023-05-09T15:14:53.850Z,12.00
2023-05-09T15:17:26.446Z,11.40
2023-05-09T15:22:33.550Z,4.60
2023-05-09T15:25:06.422Z,3.70
2023-05-09T15:27:38.420Z,3.90
2023-05-09T15:30:12.161Z,4.40
2023-05-09T15:32:44.187Z,3.50
2023-05-09T15:35:18.403Z,3.90
2023-05-09T15:37:50.252Z,3.60
2023-05-09T15:40:22.005Z,2.90
2023-05-09T15:42:54.019Z,3.10
2023-05-09T15:45:25.766Z,3.40
2023-05-09T15:47:57.495Z,3.10
2023-05-09T15:50:29.294Z,2.60
2023-05-09T15:53:01.070Z,3.20
2023-05-09T15:55:33.851Z,2.80
2023-05-09T15:58:06.324Z,3.60
2023-05-09T16:00:38.071Z,3.10
2023-05-09T16:03:10.952Z,4.00
2023-05-09T16:05:43.312Z,3.20
2023-05-09T16:08:17.050Z,2.80
2023-05-09T16:10:49.147Z,3.20
2023-05-09T16:13:21.420Z,2.60
2023-05-09T16:15:53.859Z,3.20
2023-05-09T16:20:56.255Z,3.30
2023-05-09T16:23:28.088Z,3.70
2023-05-09T16:26:00.363Z,3.20
2023-05-09T16:28:32.357Z,3.40
2023-05-09T16:31:05.518Z,3.60
2023-05-09T16:33:37.442Z,3.40
2023-05-09T16:36:09.919Z,2.90
2023-05-09T16:38:41.920Z,3.10
2023-05-09T16:41:14.105Z,3.10
2023-05-09T16:43:45.864Z,3.80
2023-05-09T16:46:17.744Z,6.50
2023-05-09T16:48:51.688Z,3.50
2023-05-09T16:51:24.129Z,5.00
2023-05-09T16:53:55.873Z,3.00
2023-05-09T16:56:27.885Z,3.70
2023-05-09T16:58:59.642Z,4.80
2023-05-09T17:01:31.662Z,3.90
2023-05-09T17:04:06.495Z,3.00
2023-05-09T17:06:38.251Z,2.90
2023-05-09T17:09:10.061Z,3.40
2023-05-09T17:11:41.757Z,2.80
2023-05-09T17:14:13.573Z,4.20
2023-05-09T17:16:45.421Z,4.30
2023-05-09T17:19:18.884Z,2.90
2023-05-09T17:21:50.745Z,3.60
2023-05-09T17:24:22.531Z,3.50
2023-05-09T17:26:54.948Z,3.20
2023-05-09T17:29:29.091Z,3.30
2023-05-09T17:32:01.586Z,3.30
2023-05-09T17:37:05.799Z,3.20
2023-05-09T17:39:38.598Z,3.20
2023-05-09T17:42:12.194Z,3.00
2023-05-09T17:44:44.602Z,3.30
2023-05-09T17:47:16.917Z,3.50
2023-05-09T17:49:48.661Z,2.70
2023-05-09T17:52:23.203Z,3.40
2023-05-09T17:54:55.165Z,4.10
2023-05-09T17:57:27.370Z,3.30
2023-05-09T18:00:00.338Z,3.40
2023-05-09T18:02:32.073Z,3.20
2023-05-09T18:05:04.844Z,3.10
2023-05-09T18:10:08.910Z,3.70
2023-05-09T18:12:40.814Z,3.70
2023-05-09T18:15:13.040Z,3.40
2023-05-09T18:17:48.219Z,3.20
2023-05-09T18:20:20.263Z,3.10
2023-05-09T18:22:53.733Z,3.30
2023-05-09T18:25:25.605Z,3.60
2023-05-09T18:27:58.321Z,3.40
2023-05-09T18:33:02.873Z,3.10
2023-05-09T18:35:34.908Z,2.90
2023-05-09T18:38:06.856Z,3.50
2023-05-09T18:40:38.741Z,4.20
2023-05-09T18:43:10.680Z,3.10
2023-05-09T18:45:45.088Z,4.00
2023-05-09T18:48:17.367Z,3.10
2023-05-09T18:50:52.339Z,4.10
2023-05-09T18:53:25.992Z,3.40
2023-05-09T18:55:57.788Z,3.20
2023-05-09T18:58:29.558Z,3.90
2023-05-09T19:01:02.156Z,4.00
2023-05-09T19:06:05.569Z,3.70
2023-05-09T19:08:37.273Z,3.50
2023-05-09T19:11:09.898Z,3.80
2023-05-09T19:13:48.433Z,4.30
2023-05-09T19:16:21.766Z,4.20
2023-05-09T19:18:55.112Z,4.40
2023-05-09T19:23:57.598Z,4.50
2023-05-09T19:26:29.291Z,3.90
2023-05-09T19:29:04.081Z,5.50
2023-05-09T19:31:37.020Z,4.60
2023-05-09T19:36:40.165Z,4.90
2023-05-09T19:39:12.151Z,4.30
2023-05-09T19:41:44.005Z,4.90
2023-05-09T19:44:16.050Z,5.30
2023-05-09T19:46:47.927Z,4.70
2023-05-09T19:49:19.827Z,4.40
2023-05-09T19:51:51.932Z,4.90
2023-05-09T19:54:26.986Z,4.90
2023-05-09T19:56:58.746Z,5.50
2023-05-09T19:59:31.650Z,5.70
2023-05-09T20:02:03.834Z,5.70
2023-05-09T20:04:38.601Z,5.00
2023-05-09T20:07:10.435Z,5.60
2023-05-09T20:09:42.231Z,6.00
2023-05-09T20:12:14.347Z,5.90
2023-05-09T20:14:46.179Z,5.00
2023-05-09T20:17:18.407Z,5.50
2023-05-09T20:19:53.211Z,6.00
2023-05-09T20:22:25.416Z,5.80
2023-05-09T20:24:57.514Z,5.90
2023-05-09T20:27:29.367Z,5.50
2023-05-09T20:30:01.146Z,6.00
2023-05-09T20:32:33.026Z,6.30
2023-05-09T20:35:05.431Z,6.30
2023-05-09T20:37:37.684Z,6.10
2023-05-09T20:40:11.627Z,6.00
2023-05-09T20:42:43.932Z,6.00
2023-05-09T20:45:15.781Z,7.20
2023-05-09T20:47:47.642Z,6.00
2023-05-09T20:50:19.910Z,6.00
2023-05-09T20:52:51.693Z,5.70
2023-05-09T20:55:23.921Z,6.20
2023-05-09T20:57:55.750Z,5.20
2023-05-09T21:00:28.004Z,5.30
2023-05-09T21:03:00.434Z,5.80
2023-05-09T21:05:32.304Z,6.30
2023-05-09T21:08:04.223Z,6.10
2023-05-09T21:10:35.924Z,5.20
2023-05-09T21:13:09.130Z,7.70
2023-05-09T21:15:40.908Z,6.00
2023-05-09T21:18:12.730Z,6.70
2023-05-09T21:20:45.472Z,5.70
2023-05-09T21:23:18.531Z,5.60
2023-05-09T21:25:50.596Z,6.90
2023-05-09T21:28:22.386Z,6.30
2023-05-09T21:30:54.703Z,6.20
2023-05-09T21:33:27.067Z,6.80
2023-05-09T21:35:59.254Z,6.10
2023-05-09T21:38:30.998Z,6.10
2023-05-09T21:41:02.795Z,6.70
2023-05-09T21:43:34.597Z,7.30
2023-05-09T21:46:08.110Z,6.60
2023-05-09T21:48:40.535Z,6.30
2023-05-09T21:51:12.483Z,6.60
2023-05-09T21:53:44.271Z,7.20
2023-05-09T21:56:16.106Z,6.10
2023-05-09T21:58:48.227Z,6.10
2023-05-09T22:01:21.261Z,7.30
2023-05-09T22:03:53.124Z,6.60
2023-05-09T22:06:25.562Z,7.00
2023-05-09T22:08:57.415Z,6.20
2023-05-09T22:11:29.210Z,6.80
2023-05-09T22:14:01.233Z,7.00
2023-05-09T22:16:33.169Z,7.30
2023-05-09T22:19:05.427Z,7.50
2023-05-09T22:21:37.156Z,7.30
2023-05-09T22:24:12.108Z,6.30
2023-05-09T22:26:44.047Z,6.80
2023-05-09T22:29:17.620Z,6.60
2023-05-09T22:31:49.384Z,7.20
2023-05-09T22:34:21.126Z,7.30
2023-05-09T22:36:54.418Z,7.10
2023-05-09T22:39:26.790Z,6.80
2023-05-09T22:41:58.444Z,6.90
2023-05-09T22:44:30.091Z,6.90
2023-05-09T22:47:01.730Z,7.80
2023-05-09T22:49:33.851Z,7.30
2023-05-09T22:52:05.743Z,7.50
2023-05-09T22:54:37.704Z,6.80
2023-05-09T22:57:09.482Z,7.60
2023-05-09T22:59:41.203Z,7.40
2023-05-09T23:02:13.396Z,7.50
2023-05-09T23:04:45.266Z,7.00
2023-05-09T23:07:16.957Z,7.60
2023-05-09T23:09:49.268Z,8.30
2023-05-09T23:12:21.204Z,7.60
2023-05-09T23:14:52.880Z,7.10
2023-05-09T23:17:24.708Z,7.20
2023-05-09T23:19:56.447Z,7.20
2023-05-09T23:22:28.241Z,7.30
2023-05-09T23:25:00.995Z,8.00
2023-05-09T23:30:03.427Z,7.50
2023-05-09T23:32:35.133Z,7.80
2023-05-09T23:35:07.992Z,7.40
2023-05-09T23:37:39.846Z,8.00
2023-05-09T23:40:13.927Z,7.60
2023-05-09T23:42:46.234Z,7.80
2023-05-09T23:45:17.918Z,7.40
2023-05-09T23:47:49.928Z,7.60
2023-05-09T23:50:21.976Z,7.90
2023-05-09T23:52:53.667Z,8.10
2023-05-09T23:55:25.585Z,7.10
2023-05-09T23:57:57.511Z,7.70
